Time;durP1;ratioP1;P1;durP2;ratioP2;P2;SDS_P1;SDS_P2;PMS_P1;PMS_P2;Temp;Humidity;BMP_temperature;BMP_pressure;BME280_temperature;BME280_humidity;BME280_pressure;Samples;Min_cycle;Max_cycle;Signal;HPM_P1;HPM_P2
2022/12/27 00:00:52;;;;;;;2.17;1.85;;;;;;;5.47;73.46;102187.25;5114968;28;20074;-79
2022/12/27 00:03:19;;;;;;;0.65;0.65;;;;;;;5.47;73.86;102183.72;5115969;28;20031;-79
2022/12/27 00:05:46;;;;;;;0.10;0.10;;;;;;;5.54;73.47;102184.78;5115274;28;20035;-79
2022/12/27 00:08:13;;;;;;;0.10;0.10;;;;;;;5.54;73.58;102190.91;5115410;28;20032;-79
2022/12/27 00:10:40;;;;;;;0.20;0.20;;;;;;;5.57;73.18;102190.06;5113791;28;20028;-79
2022/12/27 00:13:06;;;;;;;0.20;0.20;;;;;;;5.56;73.56;102185.66;5114407;28;20047;-81
2022/12/27 00:15:33;;;;;;;0.20;0.20;;;;;;;5.56;73.79;102183.94;5114802;28;20063;-81
2022/12/27 00:17:59;;;;;;;0.10;0.10;;;;;;;5.61;73.26;102181.44;5114848;28;20047;-80
2022/12/27 00:20:26;;;;;;;0.20;0.20;;;;;;;5.64;73.67;102176.22;5113945;28;20552;-79
2022/12/27 00:22:52;;;;;;;0.20;0.20;;;;;;;5.71;73.64;102178.13;5114249;28;20419;-79
2022/12/27 00:25:18;;;;;;;0.10;0.10;;;;;;;5.78;73.67;102168.63;5114428;28;20024;-79
2022/12/27 00:27:44;;;;;;;0.10;0.10;;;;;;;5.78;73.57;102181.78;5108674;28;20072;-79
2022/12/27 00:30:11;;;;;;;0.20;0.20;;;;;;;5.83;73.71;102183.66;5101292;28;20397;-79
2022/12/27 00:32:37;;;;;;;2.17;2.08;;;;;;;5.88;73.70;102180.22;5100742;28;20028;-81
2022/12/27 00:35:04;;;;;;;0.10;0.10;;;;;;;5.97;73.52;102175.19;5103914;28;20059;-78
2022/12/27 00:37:30;;;;;;;0.20;0.20;;;;;;;6.03;73.50;102185.84;5103671;28;20504;-78
2022/12/27 00:39:56;;;;;;;2.33;2.20;;;;;;;6.10;73.33;102190.38;5100652;28;20055;-79
2022/12/27 00:42:22;;;;;;;0.15;0.15;;;;;;;6.17;73.32;102179.97;5100492;28;20050;-78
2022/12/27 00:44:48;;;;;;;0.10;0.10;;;;;;;6.22;73.43;102180.94;5100740;28;20370;-79
2022/12/27 00:47:14;;;;;;;0.10;0.10;;;;;;;6.24;73.33;102184.50;5101684;28;20028;-82
2022/12/27 00:49:40;;;;;;;0.10;0.10;;;;;;;6.25;73.90;102199.44;5101145;28;20043;-80
2022/12/27 00:52:06;;;;;;;0.10;0.10;;;;;;;6.34;73.29;102198.72;5101071;28;20027;-79
2022/12/27 00:54:32;;;;;;;0.20;0.20;;;;;;;6.37;73.17;102182.97;5101314;28;20032;-79
2022/12/27 00:56:59;;;;;;;0.10;0.10;;;;;;;6.35;73.21;102180.31;5102095;28;20461;-79
2022/12/27 00:59:25;;;;;;;0.17;0.17;;;;;;;6.31;73.49;102179.38;5102675;28;20205;-79
2022/12/27 01:01:51;;;;;;;0.10;0.10;;;;;;;6.26;73.19;102182.78;5103040;28;20028;-79
2022/12/27 01:04:17;;;;;;;0.20;0.20;;;;;;;6.26;73.46;102190.69;5102723;28;20023;-79
2022/12/27 01:06:43;;;;;;;0.20;0.20;;;;;;;6.25;73.73;102192.41;5103416;28;20036;-79
2022/12/27 01:09:09;;;;;;;0.20;0.20;;;;;;;6.19;73.78;102202.81;5107240;28;20024;-78
2022/12/27 01:11:35;;;;;;;0.20;0.20;;;;;;;6.14;73.81;102215.00;5108385;28;20035;-79
2022/12/27 01:14:03;;;;;;;0.20;0.20;;;;;;;6.11;74.31;102226.34;5106872;28;20043;-79
2022/12/27 01:16:30;;;;;;;0.10;0.10;;;;;;;6.11;74.20;102236.00;5106142;28;20071;-78
2022/12/27 01:18:58;;;;;;;0.10;0.10;;;;;;;6.14;73.89;102231.69;5104618;28;20101;-78
2022/12/27 01:21:26;;;;;;;0.38;0.38;;;;;;;6.07;75.05;102221.91;5103970;28;20035;-79
2022/12/27 01:23:54;;;;;;;0.20;0.20;;;;;;;6.07;74.38;102234.13;5101159;28;20162;-79
2022/12/27 01:26:21;;;;;;;0.32;0.32;;;;;;;6.01;75.04;102229.66;5100137;28;20024;-82
2022/12/27 01:28:49;;;;;;;0.10;0.10;;;;;;;5.89;75.49;102230.22;5099126;28;20062;-81
2022/12/27 01:31:18;;;;;;;0.10;0.10;;;;;;;5.90;75.05;102239.03;5099733;28;20028;-81
2022/12/27 01:33:45;;;;;;;0.20;0.20;;;;;;;5.92;75.20;102232.94;5099487;28;20030;-81
2022/12/27 01:38:49;;;;;;;0.10;0.10;;;;;;;5.88;75.79;102243.38;5114207;27;20324;-80
2022/12/27 01:47:45;;;;;;;0.20;0.20;;;;;;;5.83;75.45;102262.56;5114523;27;20380;-79
2022/12/27 01:50:22;;;;;;;0.20;0.20;;;;;;;5.78;75.52;102258.03;5120331;28;20114;-79
2022/12/27 01:52:58;;;;;;;0.20;0.20;;;;;;;5.76;75.62;102250.13;5125898;28;20024;-79
2022/12/27 01:55:47;;;;;;;0.10;0.10;;;;;;;5.73;75.50;102257.06;5116661;28;20039;-79
2022/12/27 01:58:25;;;;;;;2.67;2.47;;;;;;;5.62;75.37;102256.78;5115288;28;20055;-79
2022/12/27 02:00:52;;;;;;;0.10;0.10;;;;;;;5.57;75.39;102261.97;5114052;28;20020;-79
2022/12/27 02:03:45;;;;;;;0.20;0.20;;;;;;;5.53;75.86;102261.84;5114386;28;20213;-79
2022/12/27 02:06:13;;;;;;;0.20;0.20;;;;;;;5.50;76.35;102263.53;5114920;28;20435;-79
2022/12/27 02:12:04;;;;;;;0.20;0.20;;;;;;;5.51;76.18;102269.72;5107387;27;20402;-79
2022/12/27 02:14:24;;;;;;;0.10;0.10;;;;;;;5.53;76.36;102277.63;5074153;28;20044;-79
2022/12/27 02:16:51;;;;;;;0.20;0.20;;;;;;;5.53;76.66;102288.16;5074686;28;20099;-79
2022/12/27 02:28:46;;;;;;;0.20;0.20;;;;;;;5.63;77.12;102296.31;5094566;27;20393;-79
2022/12/27 02:31:28;;;;;;;0.10;0.10;;;;;;;5.66;76.97;102291.09;5092719;28;20047;-80
2022/12/27 02:33:59;;;;;;;0.73;0.73;;;;;;;5.67;76.79;102286.75;5093659;28;20024;-79
2022/12/27 02:36:31;;;;;;;2.42;2.33;;;;;;;5.62;76.74;102283.09;5093193;28;20028;-79
2022/12/27 02:39:00;;;;;;;0.20;0.20;;;;;;;5.62;76.54;102290.97;5095423;28;20028;-79
2022/12/27 02:53:09;;;;;;;0.20;0.20;;;;;;;5.86;76.70;102316.06;5093446;28;20101;-79
2022/12/27 02:59:07;;;;;;;0.10;0.10;;;;;;;6.04;76.37;102311.28;5105773;27;20393;-78
2022/12/27 03:07:26;;;;;;;0.20;0.20;;;;;;;6.02;76.24;102305.13;5085175;28;20382;-80
2022/12/27 03:18:27;;;;;;;0.10;0.10;;;;;;;6.02;75.87;102314.72;5135556;27;20366;-79
2022/12/27 03:26:35;;;;;;;0.10;0.10;;;;;;;5.98;75.93;102319.00;5133397;27;20027;-80
2022/12/27 03:34:51;;;;;;;0.10;0.10;;;;;;;5.79;75.84;102323.81;5134570;27;20100;-80
2022/12/27 03:40:19;;;;;;;0.20;0.20;;;;;;;5.75;75.45;102334.25;5133957;27;20066;-79
2022/12/27 03:43:24;;;;;;;0.10;0.10;;;;;;;5.73;75.64;102339.50;5133460;28;20069;-79
2022/12/27 03:48:37;;;;;;;0.20;0.20;;;;;;;5.66;75.55;102342.81;5119951;27;1188297;-78
2022/12/27 03:51:05;;;;;;;0.15;0.15;;;;;;;5.63;75.63;102343.63;5133072;27;20030;-79
2022/12/27 03:53:37;;;;;;;1.10;1.10;;;;;;;5.59;75.76;102343.50;5133279;27;20027;-79
2022/12/27 03:56:05;;;;;;;0.20;0.20;;;;;;;5.56;75.91;102343.41;5125738;27;20068;-79
2022/12/27 03:58:32;;;;;;;0.17;0.17;;;;;;;5.55;75.81;102339.91;5112363;28;20508;-79
2022/12/27 04:00:58;;;;;;;0.10;0.10;;;;;;;5.50;76.24;102337.16;5112372;28;20110;-79
2022/12/27 04:03:24;;;;;;;0.10;0.10;;;;;;;5.50;75.92;102341.53;5112386;28;20088;-80
2022/12/27 04:05:51;;;;;;;0.10;0.10;;;;;;;5.47;76.46;102341.44;5113519;28;20034;-80
2022/12/27 04:35:57;;;;;;;0.10;0.10;;;;;;;5.61;76.90;102354.97;5113980;28;20032;-80
2022/12/27 04:38:23;;;;;;;0.75;0.75;;;;;;;5.69;76.80;102342.88;5113610;28;20016;-80
2022/12/27 04:55:10;;;;;;;0.10;0.10;;;;;;;5.65;76.38;102352.44;5113510;28;20036;-80
2022/12/27 04:57:36;;;;;;;0.10;0.10;;;;;;;5.61;76.38;102354.97;5113451;28;20122;-80
2022/12/27 05:02:50;;;;;;;0.20;0.20;;;;;;;5.59;76.25;102362.78;5099927;28;20035;-80
2022/12/27 05:05:16;;;;;;;0.20;0.20;;;;;;;5.56;76.19;102372.34;5098996;28;20038;-80
2022/12/27 05:16:01;;;;;;;0.20;0.20;;;;;;;5.44;76.23;102376.44;5098296;28;20165;-79
2022/12/27 05:18:27;;;;;;;0.13;0.13;;;;;;;5.40;76.14;102374.59;5098479;28;20020;-80
2022/12/27 05:20:54;;;;;;;0.20;0.20;;;;;;;5.39;76.27;102377.19;5098166;28;20024;-80
2022/12/27 05:26:06;;;;;;;0.52;0.52;;;;;;;5.36;76.08;102380.63;5098547;28;20067;-80
2022/12/27 05:28:32;;;;;;;0.20;0.20;;;;;;;5.34;76.34;102382.31;5098054;28;20046;-79
2022/12/27 05:31:01;;;;;;;0.15;0.15;;;;;;;5.35;75.97;102379.72;5098282;28;20462;-80
2022/12/27 05:33:30;;;;;;;0.17;0.17;;;;;;;5.30;76.02;102380.47;5097292;28;20054;-80
2022/12/27 05:35:58;;;;;;;0.15;0.15;;;;;;;5.27;75.89;102385.63;5104991;28;20024;-79
2022/12/27 05:38:25;;;;;;;0.20;0.20;;;;;;;5.22;76.36;102371.47;5110050;28;20088;-79
2022/12/27 05:40:55;;;;;;;0.10;0.10;;;;;;;5.23;76.16;102389.03;5108201;28;20027;-80
2022/12/27 05:43:21;;;;;;;0.20;0.20;;;;;;;5.19;76.06;102399.44;5109187;28;20032;-79
2022/12/27 05:45:48;;;;;;;0.20;0.20;;;;;;;5.17;76.09;102400.25;5102372;28;20032;-80
2022/12/27 05:48:14;;;;;;;0.20;0.20;;;;;;;5.19;76.04;102403.81;5098624;28;20028;-79
2022/12/27 05:50:40;;;;;;;0.10;0.10;;;;;;;5.16;76.22;102396.75;5097734;28;20041;-80
2022/12/27 05:53:06;;;;;;;0.20;0.20;;;;;;;5.12;76.39;102397.50;5099366;28;20036;-79
2022/12/27 05:55:32;;;;;;;0.25;0.25;;;;;;;5.13;76.27;102399.25;5098283;28;20032;-80
2022/12/27 05:57:58;;;;;;;0.13;0.13;;;;;;;5.11;75.73;102392.19;5099572;28;20092;-80
2022/12/27 06:00:24;;;;;;;1.27;1.27;;;;;;;5.04;76.24;102403.41;5099031;28;20040;-80
2022/12/27 06:02:50;;;;;;;0.20;0.20;;;;;;;5.04;76.34;102401.66;5101519;28;20103;-80
2022/12/27 06:05:17;;;;;;;0.10;0.10;;;;;;;5.04;76.08;102404.28;5103601;28;20024;-79
2022/12/27 06:07:43;;;;;;;0.10;0.10;;;;;;;5.02;76.01;102406.88;5102646;28;20040;-80
2022/12/27 06:10:10;;;;;;;0.10;0.10;;;;;;;4.99;76.09;102411.16;5099644;28;20028;-80
2022/12/27 06:12:36;;;;;;;0.10;0.10;;;;;;;4.93;76.35;102416.22;5100755;28;20051;-80
2022/12/27 06:15:03;;;;;;;3.70;2.72;;;;;;;4.90;76.10;102421.38;5098226;28;20055;-79
2022/12/27 06:17:29;;;;;;;0.10;0.10;;;;;;;4.81;76.70;102428.16;5098374;28;20120;-80
2022/12/27 06:19:55;;;;;;;0.20;0.20;;;;;;;4.81;76.90;102433.41;5098343;28;20110;-79
2022/12/27 06:22:22;;;;;;;0.10;0.10;;;;;;;4.82;77.40;102435.19;5098131;28;20035;-80
2022/12/27 06:24:48;;;;;;;0.10;0.10;;;;;;;4.91;77.05;102433.66;5098243;28;20020;-80
2022/12/27 06:27:14;;;;;;;0.10;0.10;;;;;;;4.93;77.18;102438.09;5098350;28;20115;-80
2022/12/27 06:29:40;;;;;;;0.10;0.10;;;;;;;4.94;77.08;102432.03;5096893;28;20039;-79
2022/12/27 06:32:06;;;;;;;0.20;0.20;;;;;;;5.01;77.13;102443.63;5100696;28;20032;-79
2022/12/27 06:34:32;;;;;;;0.10;0.10;;;;;;;5.05;77.24;102442.84;5104181;28;20036;-79
2022/12/27 06:36:59;;;;;;;0.10;0.10;;;;;;;5.07;77.19;102442.88;5107885;28;20052;-79
2022/12/27 06:39:25;;;;;;;0.20;0.20;;;;;;;5.05;77.32;102448.09;5106891;28;20032;-79
2022/12/27 06:41:54;;;;;;;0.10;0.10;;;;;;;5.05;77.27;102448.09;5102514;28;20490;-79
2022/12/27 06:44:20;;;;;;;0.20;0.20;;;;;;;5.06;76.98;102447.25;5100467;28;20103;-81
2022/12/27 06:46:47;;;;;;;0.68;0.68;;;;;;;5.04;77.01;102459.44;5099894;28;20028;-81
2022/12/27 06:49:13;;;;;;;0.10;0.10;;;;;;;5.04;76.98;102466.44;5099584;28;20497;-81
2022/12/27 06:51:40;;;;;;;0.10;0.10;;;;;;;5.02;77.16;102467.28;5100443;28;20050;-78
2022/12/27 06:54:06;;;;;;;0.10;0.10;;;;;;;5.07;77.28;102466.53;5103527;28;20546;-79
2022/12/27 06:56:32;;;;;;;0.25;0.25;;;;;;;5.02;77.37;102469.00;5106932;28;20031;-81
2022/12/27 06:58:58;;;;;;;0.10;0.10;;;;;;;5.09;77.30;102472.72;5103730;28;20020;-79
2022/12/27 07:01:26;;;;;;;0.10;0.10;;;;;;;5.13;77.13;102466.69;5101442;28;20036;-81
2022/12/27 07:03:54;;;;;;;0.10;0.10;;;;;;;5.13;77.27;102456.19;5106965;28;20463;-79
2022/12/27 07:06:25;;;;;;;0.20;0.20;;;;;;;5.13;77.41;102457.06;5108078;28;20024;-79
2022/12/27 07:08:51;;;;;;;0.10;0.10;;;;;;;5.10;77.23;102462.25;5103739;28;20147;-79
2022/12/27 07:11:19;;;;;;;0.20;0.20;;;;;;;5.11;76.91;102468.38;5101787;28;20048;-79
2022/12/27 07:13:48;;;;;;;0.10;0.10;;;;;;;5.08;77.08;102463.94;5101614;28;20043;-79
2022/12/27 07:16:18;;;;;;;0.10;0.10;;;;;;;5.07;76.84;102461.28;5099828;28;20028;-79
2022/12/27 07:18:44;;;;;;;0.20;0.20;;;;;;;5.03;77.00;102465.53;5098772;28;20032;-79
2022/12/27 07:21:13;;;;;;;0.10;0.10;;;;;;;5.02;77.17;102463.75;5099969;28;20038;-79
2022/12/27 07:23:40;;;;;;;0.13;0.13;;;;;;;4.94;77.03;102471.41;5098962;28;20020;-79
2022/12/27 07:26:10;;;;;;;0.10;0.10;;;;;;;4.95;77.31;102473.19;5098463;28;20122;-79
2022/12/27 07:28:37;;;;;;;0.17;0.17;;;;;;;4.91;77.01;102465.19;5099435;28;20046;-80
2022/12/27 07:31:21;;;;;;;0.20;0.20;;;;;;;4.92;77.03;102475.75;5097931;28;20027;-79
2022/12/27 07:33:47;;;;;;;2.42;1.55;;;;;;;4.85;76.64;102472.03;5097851;28;20065;-81
2022/12/27 07:36:17;;;;;;;0.13;0.13;;;;;;;4.82;77.12;102482.47;5099208;28;20035;-81
2022/12/27 07:38:43;;;;;;;0.10;0.10;;;;;;;4.83;77.44;102484.22;5095989;28;20501;-80
2022/12/27 07:41:11;;;;;;;0.10;0.10;;;;;;;4.90;77.42;102484.41;5098619;28;20109;-79
2022/12/27 07:43:37;;;;;;;0.95;0.95;;;;;;;4.97;77.09;102486.38;5098656;28;20031;-79
2022/12/27 07:46:10;;;;;;;0.70;0.70;;;;;;;5.07;77.09;102480.56;5098053;28;20048;-79
2022/12/27 07:48:37;;;;;;;0.13;0.13;;;;;;;5.09;77.46;102480.59;5097119;28;20089;-79
2022/12/27 07:51:03;;;;;;;0.10;0.10;;;;;;;5.14;77.62;102482.50;5097463;28;20056;-79
2022/12/27 07:53:30;;;;;;;0.10;0.10;;;;;;;5.15;77.65;102492.16;5097886;28;20478;-80
2022/12/27 07:55:56;;;;;;;0.20;0.20;;;;;;;5.15;77.74;102489.53;5098420;28;20032;-80
2022/12/27 07:58:23;;;;;;;0.10;0.10;;;;;;;5.09;77.96;102492.00;5097970;28;20032;-79
2022/12/27 08:00:50;;;;;;;0.30;0.30;;;;;;;5.10;77.80;102498.16;5097305;28;20036;-80
2022/12/27 08:03:17;;;;;;;0.10;0.10;;;;;;;5.07;77.71;102492.78;5098066;28;20036;-80
2022/12/27 08:05:46;;;;;;;0.20;0.20;;;;;;;5.06;77.69;102491.91;5098446;28;20096;-80
2022/12/27 08:08:16;;;;;;;0.20;0.20;;;;;;;5.05;77.75;102498.00;5099810;28;20052;-80
2022/12/27 08:10:42;;;;;;;0.10;0.10;;;;;;;5.03;77.25;102499.69;5104154;28;20151;-80
2022/12/27 08:13:08;;;;;;;0.10;0.10;;;;;;;4.99;77.64;102503.97;5109407;28;20031;-79
2022/12/27 08:15:36;;;;;;;0.10;0.10;;;;;;;4.99;77.48;102503.97;5102102;28;20067;-80
2022/12/27 08:18:02;;;;;;;0.80;0.77;;;;;;;4.98;77.54;102517.06;5099684;28;20047;-81
2022/12/27 08:20:28;;;;;;;0.10;0.10;;;;;;;4.98;77.50;102504.81;5099036;28;20081;-80
2022/12/27 08:22:54;;;;;;;2.95;2.75;;;;;;;4.98;77.45;102503.94;5099343;28;20027;-80
2022/12/27 08:25:21;;;;;;;0.10;0.10;;;;;;;4.99;77.44;102503.09;5108105;28;20024;-80
2022/12/27 08:27:47;;;;;;;0.10;0.10;;;;;;;4.98;77.20;102503.94;5109110;28;20035;-80
2022/12/27 08:30:13;;;;;;;0.10;0.10;;;;;;;4.98;77.11;102499.56;5108133;28;20032;-80
2022/12/27 08:32:39;;;;;;;0.10;0.10;;;;;;;4.98;77.42;102501.31;5109101;28;20039;-80
2022/12/27 08:35:06;;;;;;;0.10;0.10;;;;;;;4.99;77.54;102505.72;5111456;28;20537;-80
2022/12/27 08:37:32;;;;;;;0.10;0.10;;;;;;;5.02;77.45;102508.41;5107246;28;20077;-80
2022/12/27 08:39:58;;;;;;;0.10;0.10;;;;;;;5.00;77.60;102511.00;5101323;28;20128;-80
2022/12/27 08:42:25;;;;;;;0.15;0.15;;;;;;;4.98;77.51;102514.44;5103468;28;20036;-80
2022/12/27 08:44:51;;;;;;;0.20;0.20;;;;;;;4.98;77.41;102515.31;5102681;28;20401;-80
2022/12/27 08:47:18;;;;;;;0.20;0.20;;;;;;;4.98;77.56;102512.69;5101703;28;20161;-80
2022/12/27 08:49:44;;;;;;;0.13;0.13;;;;;;;5.00;77.43;102515.38;5100862;28;20020;-80
2022/12/27 08:52:10;;;;;;;0.22;0.22;;;;;;;5.01;77.47;102511.91;5102378;28;20040;-80
2022/12/27 08:54:36;;;;;;;0.32;0.32;;;;;;;4.99;77.41;102501.34;5102347;28;20035;-80
2022/12/27 08:57:02;;;;;;;0.10;0.10;;;;;;;4.99;77.43;102500.47;5102143;28;20063;-80
2022/12/27 08:59:29;;;;;;;0.10;0.10;;;;;;;5.01;77.49;102504.91;5101046;28;20028;-80
2022/12/27 09:01:55;;;;;;;6.25;1.15;;;;;;;5.01;77.67;102504.91;5102445;28;20406;-80
2022/12/27 09:04:21;;;;;;;0.15;0.15;;;;;;;5.02;77.69;102517.22;5102539;28;20024;-80
2022/12/27 09:06:48;;;;;;;1.38;1.30;;;;;;;5.05;77.55;102511.16;5103551;28;20032;-80
2022/12/27 09:09:14;;;;;;;1.08;0.65;;;;;;;5.08;77.74;102513.84;5102297;28;20047;-81
2022/12/27 09:11:40;;;;;;;0.10;0.10;;;;;;;5.12;77.61;102518.38;5104033;28;20036;-81
2022/12/27 09:14:06;;;;;;;0.85;0.85;;;;;;;5.11;78.05;102519.22;5102904;28;20036;-81
2022/12/27 09:16:33;;;;;;;0.10;0.10;;;;;;;5.17;77.77;102515.84;5102375;28;20047;-81
2022/12/27 09:18:59;;;;;;;0.10;0.10;;;;;;;5.23;78.00;102526.56;5101621;28;20053;-81
2022/12/27 09:21:28;;;;;;;0.10;0.10;;;;;;;5.29;78.06;102520.59;5102176;28;20028;-81
2022/12/27 09:23:54;;;;;;;0.52;0.52;;;;;;;5.36;77.91;102527.81;5102362;28;20024;-81
2022/12/27 09:26:23;;;;;;;0.15;0.15;;;;;;;5.39;78.23;102530.53;5102287;28;20617;-81
2022/12/27 09:28:49;;;;;;;0.20;0.20;;;;;;;5.49;78.17;102527.28;5108575;28;20058;-81
2022/12/27 09:31:17;;;;;;;0.15;0.15;;;;;;;5.51;78.18;102522.97;5108073;28;20035;-79
2022/12/27 09:33:43;;;;;;;0.10;0.10;;;;;;;5.62;78.15;102525.91;5102496;28;20024;-79
2022/12/27 09:36:14;;;;;;;0.10;0.10;;;;;;;5.66;78.15;102532.16;5103209;28;20481;-81
2022/12/27 09:38:42;;;;;;;0.28;0.28;;;;;;;5.73;77.82;102528.84;5103304;28;20032;-81
2022/12/27 09:41:36;;;;;;;0.17;0.17;;;;;;;5.78;77.76;102523.69;5103066;28;20107;-79
2022/12/27 09:44:06;;;;;;;0.15;0.15;;;;;;;5.77;77.81;102519.28;5101407;28;20524;-79
2022/12/27 09:46:43;;;;;;;0.10;0.10;;;;;;;5.83;77.90;102525.63;5101894;28;20093;-82
2022/12/27 09:49:25;;;;;;;0.10;0.10;;;;;;;5.86;77.53;102523.88;5102275;28;20039;-81
2022/12/27 09:52:00;;;;;;;0.10;0.10;;;;;;;5.88;77.70;102532.72;5102277;28;20028;-82
2022/12/27 09:54:35;;;;;;;0.10;0.10;;;;;;;5.96;77.64;102541.72;5108482;28;20067;-81
2022/12/27 09:57:05;;;;;;;0.22;0.22;;;;;;;5.97;77.56;102527.72;5112016;28;20076;-79
2022/12/27 09:59:37;;;;;;;0.10;0.10;;;;;;;5.99;77.32;102532.22;5101932;28;20027;-79
2022/12/27 10:02:20;;;;;;;0.20;0.20;;;;;;;6.05;77.41;102527.94;5104846;28;20035;-79
2022/12/27 10:04:46;;;;;;;0.38;0.38;;;;;;;6.02;77.18;102534.03;5104177;28;20028;-79
2022/12/27 10:07:38;;;;;;;0.30;0.30;;;;;;;6.03;76.98;102530.56;5102878;28;20048;-80
2022/12/27 10:10:37;;;;;;;0.10;0.10;;;;;;;6.07;76.90;102537.66;5101967;28;20035;-80
2022/12/27 10:13:17;;;;;;;0.20;0.20;;;;;;;6.07;77.18;102532.41;5102203;28;20563;-80
2022/12/27 10:16:12;;;;;;;0.10;0.10;;;;;;;6.11;76.89;102530.75;5106562;28;20024;-80
2022/12/27 10:24:18;;;;;;;0.20;0.20;;;;;;;6.24;77.76;102529.31;5122609;27;1249091;-79
2022/12/27 10:26:44;;;;;;;0.22;0.22;;;;;;;6.34;77.33;102533.94;5124704;27;20028;-79
2022/12/27 10:29:21;;;;;;;0.35;0.35;;;;;;;6.39;76.80;102537.59;5117503;28;20100;-79
2022/12/27 10:31:48;;;;;;;0.10;0.10;;;;;;;6.40;77.03;102538.47;5117398;28;20011;-80
2022/12/27 10:34:16;;;;;;;0.10;0.10;;;;;;;6.42;76.58;102537.66;5117439;28;20053;-79
2022/12/27 10:36:44;;;;;;;0.20;0.20;;;;;;;6.45;76.92;102527.19;5117762;28;20031;-79
2022/12/27 10:39:33;;;;;;;0.13;0.13;;;;;;;6.54;76.64;102530.91;5116253;28;20501;-79
2022/12/27 10:42:30;;;;;;;0.43;0.43;;;;;;;6.55;77.08;102528.28;5116968;28;20074;-80
2022/12/27 10:45:38;;;;;;;1.40;1.30;;;;;;;6.60;77.21;102520.50;5120897;28;20043;-80
2022/12/27 10:48:23;;;;;;;0.20;0.20;;;;;;;6.66;76.99;102520.66;5125272;28;20036;-79
2022/12/27 10:51:10;;;;;;;0.20;0.20;;;;;;;6.74;76.88;102513.84;5117093;28;20020;-79
2022/12/27 10:53:51;;;;;;;0.10;0.10;;;;;;;6.83;77.44;102520.16;5117772;28;20034;-79
2022/12/27 10:56:37;;;;;;;0.20;0.20;;;;;;;6.94;76.53;102523.91;5116672;28;20028;-79
2022/12/27 10:59:15;;;;;;;0.22;0.22;;;;;;;6.96;76.40;102516.94;5116907;28;20024;-79
2022/12/27 11:01:44;;;;;;;0.10;0.10;;;;;;;7.00;76.77;102518.78;5117232;28;20045;-79
2022/12/27 11:07:12;;;;;;;0.85;0.85;;;;;;;7.22;76.57;102521.88;5077110;28;20390;-79
2022/12/27 11:09:42;;;;;;;0.30;0.30;;;;;;;7.27;76.45;102525.50;5078147;28;20041;-79
2022/12/27 11:12:30;;;;;;;0.10;0.10;;;;;;;7.38;76.08;102512.56;5079616;28;20218;-79
2022/12/27 11:15:05;;;;;;;0.10;0.10;;;;;;;7.47;75.67;102515.34;5076925;28;20041;-79
2022/12/27 11:23:01;;;;;;;0.10;0.10;;;;;;;7.62;75.82;102517.41;5125047;27;20376;-78
2022/12/27 11:25:29;;;;;;;0.20;0.20;;;;;;;7.68;75.24;102514.00;5121220;28;20074;-79
2022/12/27 11:28:04;;;;;;;0.20;0.20;;;;;;;7.76;75.02;102509.75;5117108;28;20080;-79
2022/12/27 11:30:34;;;;;;;0.75;0.70;;;;;;;7.81;74.42;102512.47;5117230;28;20106;-79
2022/12/27 11:33:05;;;;;;;0.50;0.50;;;;;;;7.96;74.97;102504.81;5117785;28;20493;-79
2022/12/27 11:35:44;;;;;;;0.10;0.10;;;;;;;8.00;75.08;102506.66;5117214;28;20520;-79
2022/12/27 11:38:24;;;;;;;0.10;0.10;;;;;;;8.01;73.41;102508.47;5117259;28;20039;-79
2022/12/27 11:44:14;;;;;;;0.20;0.20;;;;;;;8.05;73.77;102498.81;5105450;27;1208905;-81
2022/12/27 11:47:02;;;;;;;0.47;0.47;;;;;;;8.05;73.71;102504.09;5138721;27;20069;-82
2022/12/27 11:49:36;;;;;;;0.10;0.10;;;;;;;8.03;74.37;102503.19;5139526;27;20083;-82
2022/12/27 11:58:07;;;;;;;0.20;0.20;;;;;;;8.14;73.63;102484.88;5112192;27;1172510;-79
2022/12/27 12:00:54;;;;;;;0.10;0.10;;;;;;;8.18;73.79;102487.59;5146811;27;20350;-78
2022/12/27 12:03:51;;;;;;;0.20;0.20;;;;;;;8.30;74.02;102480.72;5147917;27;20027;-79
2022/12/27 12:06:43;;;;;;;0.10;0.10;;;;;;;8.31;74.07;102487.81;5147249;27;20022;-79
2022/12/27 12:14:39;;;;;;;0.15;0.15;;;;;;;8.33;74.02;102468.47;5131974;27;1248676;-78
2022/12/27 12:17:33;;;;;;;0.30;0.30;;;;;;;8.36;74.09;102471.19;5128790;27;20035;-78
2022/12/27 12:23:25;;;;;;;0.60;0.60;;;;;;;8.43;74.08;102449.25;5129879;27;1184243;-78
2022/12/27 12:29:08;;;;;;;0.10;0.10;;;;;;;8.69;74.07;102446.13;5078348;28;20382;-78
2022/12/27 12:32:03;;;;;;;0.20;0.20;;;;;;;8.84;73.65;102436.66;5077823;28;20040;-78
2022/12/27 12:34:50;;;;;;;0.10;0.10;;;;;;;8.99;73.42;102425.38;5077860;28;20093;-78
2022/12/27 12:37:44;;;;;;;0.10;0.10;;;;;;;9.13;72.86;102418.47;5077669;28;20025;-78
2022/12/27 12:40:38;;;;;;;0.20;0.20;;;;;;;9.28;72.66;102415.09;5077004;28;20028;-78
2022/12/27 12:43:23;;;;;;;0.17;0.17;;;;;;;9.30;71.53;102416.03;5077393;28;20510;-78
2022/12/27 12:49:04;;;;;;;0.10;0.10;;;;;;;9.28;72.17;102399.22;5101081;27;20397;-78
2022/12/27 12:51:44;;;;;;;0.10;0.10;;;;;;;9.21;71.45;102392.13;5100241;28;20040;-79
2022/12/27 12:54:50;;;;;;;0.10;0.10;;;;;;;9.26;71.48;102378.94;5099608;28;20032;-79
2022/12/27 13:00:07;;;;;;;0.20;0.20;;;;;;;9.15;71.77;102377.06;5074638;28;20908;-82
2022/12/27 13:05:27;;;;;;;0.20;0.20;;;;;;;8.95;71.30;102371.56;5123893;27;1224963;-79
2022/12/27 13:13:55;;;;;;;0.20;0.20;;;;;;;8.86;71.76;102352.94;5072856;27;20391;-79
2022/12/27 13:16:32;;;;;;;;;;;;;;;8.88;71.96;102348.56;5074198;28;20041;-78
2022/12/27 13:27:46;;;;;;;0.20;0.20;;;;;;;8.64;72.07;102358.00;5117500;27;20386;-78
2022/12/27 13:33:09;;;;;;;0.20;0.20;;;;;;;8.66;72.02;102348.34;5118093;27;20372;-79
2022/12/27 13:35:58;;;;;;;0.10;0.10;;;;;;;8.64;71.82;102350.06;5118840;28;20087;-78
2022/12/27 13:39:04;;;;;;;0.10;0.10;;;;;;;8.69;72.36;102345.72;5116817;28;20031;-79
2022/12/27 13:45:00;;;;;;;0.10;0.10;;;;;;;8.66;71.92;102337.78;5125097;27;1165926;-82
2022/12/27 13:55:56;;;;;;;0.10;0.10;;;;;;;8.53;71.92;102309.41;5125229;27;1187810;-78
2022/12/27 13:58:48;;;;;;;0.40;0.40;;;;;;;8.54;71.97;102298.00;5144795;28;20051;-78
2022/12/27 14:04:28;;;;;;;0.65;0.65;;;;;;;8.45;71.84;102292.53;5133866;27;20389;-80
2022/12/27 14:12:40;;;;;;;0.10;0.10;;;;;;;8.53;71.92;102273.31;5080321;28;20137;-78
2022/12/27 14:15:11;;;;;;;0.90;0.90;;;;;;;8.43;72.23;102288.13;5083855;28;20108;-78
2022/12/27 14:20:55;;;;;;;0.20;0.20;;;;;;;8.50;71.64;102294.41;5078079;28;20394;-79
2022/12/27 14:32:23;;;;;;;0.52;0.52;;;;;;;8.49;72.06;102276.78;5099883;27;1874815;-78
2022/12/27 14:35:21;;;;;;;0.13;0.13;;;;;;;8.52;71.98;102275.94;5142188;28;20038;-79
2022/12/27 14:38:25;;;;;;;0.10;0.10;;;;;;;8.43;72.01;102277.56;5121025;28;20036;-78
2022/12/27 14:44:15;;;;;;;0.10;0.10;;;;;;;8.44;72.05;102265.25;5139210;27;20375;-79
2022/12/27 14:47:14;;;;;;;0.20;0.20;;;;;;;8.36;71.90;102265.19;5138298;27;20023;-79
2022/12/27 14:50:18;;;;;;;0.10;0.10;;;;;;;8.37;72.43;102266.94;5137857;28;20031;-79
2022/12/27 15:03:49;;;;;;;0.20;0.20;;;;;;;8.40;72.51;102276.66;5118703;27;20144;-79
2022/12/27 15:12:28;;;;;;;0.10;0.10;;;;;;;8.41;72.42;102274.03;5124527;27;1204392;-79
2022/12/27 15:15:13;;;;;;;0.15;0.15;;;;;;;8.41;72.68;102263.47;5138982;28;20104;-79
2022/12/27 15:18:11;;;;;;;0.20;0.20;;;;;;;8.42;72.63;102257.31;5118721;28;20393;-79
2022/12/27 15:23:24;;;;;;;0.10;0.10;;;;;;;8.34;72.52;102250.19;5125801;27;1180221;-79
2022/12/27 15:28:44;;;;;;;0.30;0.30;;;;;;;8.36;72.55;102257.25;5098884;27;1916592;-80
2022/12/27 15:31:50;;;;;;;0.60;0.60;;;;;;;8.35;72.86;102276.59;5139566;28;20047;-80
2022/12/27 15:34:40;;;;;;;0.10;0.10;;;;;;;8.41;72.83;102270.50;5139978;28;20032;-80
2022/12/27 15:37:26;;;;;;;0.45;0.35;;;;;;;8.36;72.32;102270.47;5124204;28;20012;-80
2022/12/27 15:39:55;;;;;;;0.57;0.57;;;;;;;8.38;72.29;102258.13;5118019;28;20063;-80
2022/12/27 15:42:48;;;;;;;0.10;0.10;;;;;;;8.43;72.57;102260.84;5111665;28;20043;-79
2022/12/27 15:45:42;;;;;;;0.63;0.63;;;;;;;8.45;72.35;102258.22;5128046;28;20069;-79
2022/12/27 15:51:18;;;;;;;19.63;1.85;;;;;;;8.39;72.29;102252.00;5127703;27;1276366;-78
2022/12/27 15:54:12;;;;;;;1.20;1.20;;;;;;;8.39;72.16;102240.56;5143083;28;20125;-79
2022/12/27 15:57:15;;;;;;;0.25;0.25;;;;;;;8.45;72.24;102237.06;5130798;28;20085;-79
2022/12/27 16:02:26;;;;;;;0.20;0.20;;;;;;;8.39;72.31;102236.13;5118343;27;20782;-79
2022/12/27 16:07:37;;;;;;;0.25;0.25;;;;;;;8.36;72.66;102235.22;5118374;27;20434;-79